Time;durP1;ratioP1;P1;durP2;ratioP2;P2;SDS_P1;SDS_P2;PMS_P1;PMS_P2;Temp;Humidity;BMP_temperature;BMP_pressure;BME280_temperature;BME280_humidity;BME280_pressure;Samples;Min_cycle;Max_cycle;Signal;HPM_P1;HPM_P2
2024/03/21 00:02:03;;;;;;;9.40;5.07;;;;;;;11.07;100.00;102179.16;5017172;28;20459;-75
2024/03/21 00:04:28;;;;;;;8.67;5.10;;;;;;;10.31;100.00;102058.78;5002024;28;21243;-75
2024/03/21 00:06:53;;;;;;;11.17;6.30;;;;;;;11.10;100.00;102178.00;5000057;28;20439;-75
2024/03/21 00:09:20;;;;;;;8.30;4.90;;;;;;;9.64;100.00;101948.97;5003765;28;20197;-74
2024/03/21 00:11:46;;;;;;;9.93;5.90;;;;;;;10.28;100.00;102073.38;5002457;28;20255;-75
2024/03/21 00:14:11;;;;;;;11.63;5.47;;;;;;;10.57;100.00;102107.72;5004584;28;20428;-75
2024/03/21 00:16:36;;;;;;;12.40;5.60;;;;;;;10.78;100.00;102150.16;5005986;28;20189;-75
2024/03/21 00:19:03;;;;;;;9.97;5.87;;;;;;;10.90;100.00;102137.22;5003257;28;20192;-76
2024/03/21 00:21:29;;;;;;;10.30;6.00;;;;;;;10.88;100.00;102168.78;5003408;28;20205;-75
2024/03/21 00:23:54;;;;;;;12.40;5.83;;;;;;;11.01;100.00;102165.59;5008983;28;20497;-75
2024/03/21 00:26:20;;;;;;;9.50;5.77;;;;;;;10.92;100.00;102143.28;5005761;28;20431;-75
2024/03/21 00:28:46;;;;;;;9.20;5.93;;;;;;;10.93;100.00;102149.47;5005612;28;20196;-75
2024/03/21 00:31:12;;;;;;;8.67;5.10;;;;;;;10.63;100.00;102088.28;5001078;28;20547;-75
2024/03/21 00:33:38;;;;;;;12.00;6.10;;;;;;;10.59;100.00;102103.06;5006639;28;20446;-75
2024/03/21 00:36:04;;;;;;;10.60;5.97;;;;;;;10.72;100.00;102120.47;5005020;28;20432;-75
2024/03/21 00:38:30;;;;;;;11.17;5.90;;;;;;;11.02;100.00;102149.31;5005921;28;20299;-75
2024/03/21 00:40:55;;;;;;;10.47;6.50;;;;;;;10.28;100.00;102040.34;5003627;28;20538;-75
2024/03/21 00:43:22;;;;;;;16.60;7.40;;;;;;;10.11;100.00;102021.53;5003909;28;20474;-75
2024/03/21 00:45:48;;;;;;;11.10;6.93;;;;;;;10.00;100.00;102013.81;5004218;28;20178;-75
2024/03/21 00:48:13;;;;;;;12.90;8.33;;;;;;;10.76;100.00;102132.53;5021523;28;20906;-75
2024/03/21 00:50:38;;;;;;;11.17;6.90;;;;;;;10.03;100.00;102004.59;5002180;28;20203;-75
2024/03/21 00:53:05;;;;;;;15.90;7.67;;;;;;;10.70;100.00;102149.31;5006154;28;20528;-75
2024/03/21 00:55:31;;;;;;;13.33;7.53;;;;;;;10.07;100.00;102048.84;5005381;28;20188;-75
2024/03/21 00:57:57;;;;;;;12.80;7.90;;;;;;;10.89;100.00;102169.63;5005206;28;20440;-75
2024/03/21 01:00:22;;;;;;;10.83;6.97;;;;;;;10.89;100.00;102173.16;5004145;28;20181;-75
2024/03/21 01:02:47;;;;;;;13.23;7.20;;;;;;;10.93;100.00;102173.63;5002215;28;20205;-76
2024/03/21 01:05:14;;;;;;;12.03;7.57;;;;;;;10.19;100.00;102056.41;5001621;28;20213;-75
2024/03/21 01:07:40;;;;;;;10.60;7.33;;;;;;;9.95;100.00;102021.50;5022743;28;20193;-75
2024/03/21 01:10:06;;;;;;;16.43;8.00;;;;;;;10.20;100.00;102049.19;5004843;28;20505;-75
2024/03/21 01:12:31;;;;;;;10.10;6.87;;;;;;;10.35;100.00;102065.47;5003884;28;20207;-75
2024/03/21 01:14:57;;;;;;;11.30;6.90;;;;;;;10.70;100.00;102117.13;5005590;28;20435;-74
2024/03/21 01:17:23;;;;;;;14.27;8.73;;;;;;;10.81;100.00;102162.41;5006165;28;20186;-75
2024/03/21 01:19:48;;;;;;;14.00;8.50;;;;;;;10.23;100.00;102059.56;5004342;28;20193;-75
2024/03/21 01:22:13;;;;;;;13.20;8.80;;;;;;;10.95;100.00;102177.00;5006705;28;20474;-75
2024/03/21 01:24:39;;;;;;;13.90;8.50;;;;;;;10.56;100.00;102118.66;5007418;28;20209;-74
2024/03/21 01:27:05;;;;;;;13.33;8.00;;;;;;;10.71;100.00;102132.22;5007838;28;20185;-74
2024/03/21 01:29:33;;;;;;;15.40;9.03;;;;;;;10.17;100.00;102055.72;5006599;28;20287;-74
2024/03/21 01:31:58;;;;;;;13.23;8.60;;;;;;;10.48;100.00;102091.81;5004989;28;20455;-74
2024/03/21 01:34:24;;;;;;;15.30;9.00;;;;;;;10.12;100.00;102030.41;5004867;28;21039;-74
2024/03/21 01:36:52;;;;;;;12.43;8.13;;;;;;;10.93;100.00;102166.41;5003956;28;20184;-75
2024/03/21 01:39:19;;;;;;;13.60;7.67;;;;;;;10.30;100.00;102087.44;5004095;28;20290;-74
2024/03/21 01:41:45;;;;;;;13.33;8.53;;;;;;;10.86;100.00;102165.44;5000851;28;20461;-74
2024/03/21 01:44:19;;;;;;;11.27;8.00;;;;;;;10.92;100.00;102147.81;5004781;28;20472;-74
2024/03/21 01:46:46;;;;;;;11.50;8.00;;;;;;;10.90;100.00;102149.81;5004870;28;20552;-75
2024/03/21 01:49:12;;;;;;;12.43;8.10;;;;;;;10.10;100.00;102011.81;5018704;22;20499;-74
2024/03/21 01:51:39;;;;;;;12.70;8.57;;;;;;;8.58;100.00;101803.19;4984512;28;20467;-74
2024/03/21 01:54:07;;;;;;;13.33;8.93;;;;;;;9.08;100.00;101899.63;5006606;28;20503;-74
2024/03/21 01:56:33;;;;;;;13.20;9.13;;;;;;;9.37;100.00;101917.94;5007932;28;20471;-74
2024/03/21 01:58:59;;;;;;;12.87;8.63;;;;;;;10.02;100.00;102010.97;5007482;28;20435;-73
2024/03/21 02:01:27;;;;;;;12.83;7.90;;;;;;;9.78;100.00;101985.84;4997666;28;20456;-74
2024/03/21 02:03:55;;;;;;;14.00;8.30;;;;;;;9.65;100.00;101991.66;5006807;28;20678;-74
2024/03/21 02:06:22;;;;;;;13.57;8.27;;;;;;;9.62;100.00;102004.53;4980813;28;20441;-74
2024/03/21 02:08:49;;;;;;;11.27;7.57;;;;;;;9.19;100.00;101936.81;4992084;28;20444;-73
2024/03/21 02:11:15;;;;;;;12.23;8.53;;;;;;;9.22;100.00;101931.13;5006785;28;20613;-73
2024/03/21 02:13:41;;;;;;;12.20;8.20;;;;;;;10.68;100.00;102127.19;4998974;28;20849;-73
2024/03/21 02:16:06;;;;;;;10.80;7.13;;;;;;;10.75;100.00;102130.88;5006419;28;20439;-74
2024/03/21 02:18:32;;;;;;;13.20;8.70;;;;;;;10.58;100.00;102141.59;5004991;28;20486;-75
2024/03/21 02:20:57;;;;;;;11.93;8.10;;;;;;;10.25;100.00;102076.34;5003932;28;20209;-74
2024/03/21 02:23:23;;;;;;;12.97;8.57;;;;;;;10.45;100.00;102108.25;5007192;28;20295;-74
2024/03/21 02:25:48;;;;;;;13.60;9.03;;;;;;;9.76;100.00;102000.41;4985888;28;20189;-74
2024/03/21 02:28:14;;;;;;;11.57;8.37;;;;;;;10.39;100.00;102107.91;5007138;28;20237;-74
2024/03/21 02:30:40;;;;;;;16.07;10.00;;;;;;;10.19;100.00;102125.28;5003359;28;20219;-74
2024/03/21 02:33:05;;;;;;;13.43;8.27;;;;;;;10.07;100.00;102102.47;5005405;28;20217;-74
2024/03/21 02:35:31;;;;;;;14.47;7.80;;;;;;;9.92;100.00;102091.53;5004836;28;20185;-74
2024/03/21 02:37:57;;;;;;;12.73;7.43;;;;;;;9.73;100.00;102093.50;5005521;28;20263;-74
2024/03/21 02:40:22;;;;;;;12.60;7.20;;;;;;;9.48;100.00;102052.38;5015029;28;20462;-74
2024/03/21 02:42:48;;;;;;;12.73;7.17;;;;;;;8.93;100.00;101918.16;5010082;28;20216;-74
2024/03/21 02:45:13;;;;;;;9.30;6.13;;;;;;;9.03;100.00;101937.63;5006545;28;20404;-74
2024/03/21 02:47:38;;;;;;;11.00;7.40;;;;;;;9.36;100.00;101984.06;4985923;28;20861;-74
2024/03/21 02:50:05;;;;;;;12.03;6.27;;;;;;;8.54;100.00;101913.31;5003728;28;20243;-74
2024/03/21 02:52:31;;;;;;;10.07;6.30;;;;;;;9.26;100.00;102000.25;5005381;28;20565;-73
2024/03/21 02:54:56;;;;;;;12.87;7.33;;;;;;;9.09;100.00;101982.47;5001740;28;20439;-74
2024/03/21 02:57:21;;;;;;;13.60;7.70;;;;;;;9.10;100.00;102005.53;5006812;28;20216;-74
2024/03/21 02:59:47;;;;;;;14.83;9.17;;;;;;;8.75;100.00;102017.22;5006877;28;20666;-74
2024/03/21 03:02:15;;;;;;;17.23;10.40;;;;;;;9.02;100.00;102024.22;5006407;28;20216;-74
2024/03/21 03:04:40;;;;;;;24.20;10.60;;;;;;;8.46;100.00;102004.19;5007611;28;20447;-74
2024/03/21 03:07:06;;;;;;;16.93;10.40;;;;;;;8.59;100.00;101997.44;5005061;28;20469;-74
2024/03/21 03:09:31;;;;;;;16.40;11.33;;;;;;;8.12;100.00;101914.84;5006357;28;20181;-74
2024/03/21 03:11:56;;;;;;;20.17;12.37;;;;;;;8.29;100.00;101931.84;5000802;28;20259;-74
2024/03/21 03:14:22;;;;;;;16.00;10.50;;;;;;;8.36;100.00;102025.59;5006181;28;20234;-74
2024/03/21 03:16:48;;;;;;;17.20;9.30;;;;;;;7.90;100.00;101908.19;5006111;28;20205;-74
2024/03/21 03:19:14;;;;;;;16.03;9.20;;;;;;;8.22;100.00;102012.81;5005531;28;20494;-74
2024/03/21 03:21:39;;;;;;;15.93;11.00;;;;;;;7.58;100.00;101929.25;5006432;28;20209;-74
2024/03/21 03:24:05;;;;;;;17.13;9.70;;;;;;;8.21;100.00;101987.91;5004908;28;20217;-74
2024/03/21 03:26:31;;;;;;;15.90;9.30;;;;;;;8.11;100.00;102027.25;5006030;28;20181;-74
2024/03/21 03:28:56;;;;;;;;;;;;;;;8.39;100.00;102081.50;5005644;28;20426;-74
2024/03/21 03:31:25;;;;;;;;;;;;;;;8.50;100.00;102099.94;5006631;28;19929;-74
2024/03/21 03:36:35;;;;;;;15.13;10.50;;;;;;;8.35;100.00;102070.22;5004971;28;20426;-74
2024/03/21 03:39:00;;;;;;;13.00;10.00;;;;;;;8.74;100.00;102144.81;4986681;28;20424;-74
2024/03/21 03:41:26;;;;;;;16.37;10.60;;;;;;;8.27;100.00;102154.84;5007104;28;20209;-74
2024/03/21 03:43:51;;;;;;;12.93;8.03;;;;;;;8.09;100.00;102163.69;5002277;28;20208;-74
2024/03/21 03:46:17;;;;;;;10.67;6.43;;;;;;;8.62;100.00;102242.34;4985419;28;20185;-74
2024/03/21 03:48:42;;;;;;;11.70;7.10;;;;;;;8.62;100.00;102253.03;5003532;28;20208;-74
2024/03/21 03:51:07;;;;;;;12.53;7.77;;;;;;;8.85;100.00;102263.28;5003284;28;20213;-74
2024/03/21 03:53:33;;;;;;;12.07;6.43;;;;;;;8.90;100.00;102290.41;5006923;28;20181;-74
2024/03/21 03:55:58;;;;;;;13.43;6.67;;;;;;;8.68;100.00;102318.44;5006120;28;20181;-74
2024/03/21 03:58:24;;;;;;;13.00;5.83;;;;;;;8.80;100.00;102339.50;5007631;28;20576;-74
2024/03/21 04:00:56;;;;;;;13.60;5.17;;;;;;;8.25;100.00;102286.00;5003895;28;20189;-74
2024/03/21 04:03:22;;;;;;;;;;;;;;;8.98;100.00;102402.91;5004326;28;20224;-74
2024/03/21 04:05:57;;;;;;;10.43;3.70;;;;;;;8.91;100.00;102439.25;5004231;28;20442;-74
2024/03/21 04:08:23;;;;;;;11.63;3.03;;;;;;;8.90;100.00;102499.97;5004945;28;20189;-74
2024/03/21 04:10:49;;;;;;;12.10;3.85;;;;;;;8.29;100.00;102422.88;4991365;28;20491;-74
2024/03/21 04:13:14;;;;;;;9.50;3.00;;;;;;;8.63;100.00;102588.22;5006225;28;20878;-74
2024/03/21 04:15:40;;;;;;;11.50;2.65;;;;;;;7.68;100.00;102520.25;5005351;28;20177;-74
2024/03/21 04:18:05;;;;;;;10.77;2.50;;;;;;;7.93;100.00;102621.25;5006630;28;20345;-74
2024/03/21 04:20:30;;;;;;;;;;;;;;;8.38;100.00;102738.38;5007822;28;19921;-74
2024/03/21 04:22:56;;;;;;;;;;;;;;;8.52;100.00;102787.13;5004096;28;20421;-74
2024/03/21 04:25:22;;;;;;;;;;;;;;;8.41;100.00;102816.66;5006296;28;19917;-75
2024/03/21 04:27:47;;;;;;;;;;;;;;;8.45;100.00;102834.13;5006015;28;20304;-74
2024/03/21 04:30:12;;;;;;;;;;;;;;;8.40;100.00;102858.59;5006698;28;19915;-74
2024/03/21 04:32:38;;;;;;;14.03;2.13;;;;;;;8.33;100.00;102889.50;5004560;28;20214;-74
2024/03/21 04:35:03;;;;;;;8.23;1.90;;;;;;;7.80;100.00;102801.47;5004040;28;20181;-74
2024/03/21 04:37:29;;;;;;;10.10;2.20;;;;;;;8.22;100.00;102925.19;5001693;28;20654;-74
2024/03/21 04:39:54;;;;;;;17.23;3.83;;;;;;;8.37;100.00;102934.56;5005222;28;20231;-74
2024/03/21 04:42:20;;;;;;;13.70;3.20;;;;;;;8.30;100.00;102949.44;5004691;28;20272;-74
2024/03/21 04:44:45;;;;;;;9.40;2.20;;;;;;;8.14;100.00;102904.47;5004647;28;20213;-74
2024/03/21 04:47:11;;;;;;;10.33;2.90;;;;;;;8.62;100.00;102987.78;5004166;28;20590;-74
2024/03/21 04:49:37;;;;;;;11.57;2.40;;;;;;;8.43;100.00;102993.88;5005881;28;20189;-74
2024/03/21 04:52:04;;;;;;;9.27;2.13;;;;;;;8.08;100.00;102953.09;5005256;28;20451;-74
2024/03/21 04:54:29;;;;;;;8.47;2.10;;;;;;;8.43;100.00;103017.94;5006113;28;20654;-74
2024/03/21 04:56:56;;;;;;;11.10;2.60;;;;;;;8.36;100.00;103052.34;5003457;28;20436;-74
2024/03/21 04:59:25;;;;;;;8.73;2.83;;;;;;;8.10;100.00;102982.38;5003232;28;20177;-74
2024/03/21 05:01:57;;;;;;;12.10;2.33;;;;;;;8.37;100.00;103062.91;5018983;28;20463;-74
2024/03/21 05:04:22;;;;;;;10.80;3.20;;;;;;;8.57;100.00;103047.03;5011264;28;20473;-74
2024/03/21 05:06:48;;;;;;;8.10;2.60;;;;;;;7.88;100.00;102957.47;5007196;28;20464;-74
2024/03/21 05:09:13;;;;;;;13.17;3.50;;;;;;;8.26;100.00;103030.88;5010043;28;20189;-74
2024/03/21 05:11:39;;;;;;;10.63;2.90;;;;;;;7.90;100.00;102955.53;4987947;28;20216;-74
2024/03/21 05:14:04;;;;;;;10.37;2.93;;;;;;;7.76;100.00;102945.16;5010370;28;20185;-74
2024/03/21 05:16:30;;;;;;;14.90;3.37;;;;;;;8.48;100.00;103058.53;4987715;28;20189;-74
2024/03/21 05:18:56;;;;;;;11.23;3.10;;;;;;;8.55;100.00;103040.97;5007509;28;20192;-74
2024/03/21 05:21:22;;;;;;;11.50;2.80;;;;;;;8.69;100.00;103069.22;4982572;28;20236;-74
2024/03/21 05:23:47;;;;;;;12.60;3.30;;;;;;;8.07;100.00;103018.25;5007527;28;20480;-74
2024/03/21 05:26:13;;;;;;;11.33;3.30;;;;;;;7.97;100.00;103014.63;5010017;28;20436;-74
2024/03/21 05:28:38;;;;;;;12.10;3.07;;;;;;;7.66;100.00;103029.69;5005931;28;20182;-74
2024/03/21 05:31:21;;;;;;;10.90;3.07;;;;;;;8.09;100.00;103028.78;5004871;28;20605;-74
2024/03/21 05:33:47;;;;;;;14.53;4.00;;;;;;;7.95;100.00;103013.91;5006401;28;20185;-74
2024/03/21 05:36:13;;;;;;;16.43;3.40;;;;;;;8.45;100.00;103106.94;5008802;28;20420;-74
2024/03/21 05:38:40;;;;;;;10.87;3.00;;;;;;;8.53;100.00;103107.97;5008062;28;20420;-74
2024/03/21 05:41:06;;;;;;;11.97;3.40;;;;;;;8.51;100.00;103080.50;5010516;28;20517;-74
2024/03/21 05:43:32;;;;;;;17.47;4.50;;;;;;;7.93;100.00;102959.75;5009841;28;20456;-74
2024/03/21 05:45:58;;;;;;;12.03;3.20;;;;;;;8.09;100.00;103037.66;5006010;28;20957;-74
2024/03/21 05:48:23;;;;;;;10.40;2.90;;;;;;;8.15;100.00;103022.91;5006215;28;20446;-74
2024/03/21 05:50:48;;;;;;;10.87;3.23;;;;;;;8.59;100.00;103123.50;5006692;28;20878;-74
2024/03/21 05:53:14;;;;;;;19.47;3.07;;;;;;;8.07;100.00;103049.44;5001456;28;20247;-74
2024/03/21 05:55:39;;;;;;;20.10;4.50;;;;;;;7.89;100.00;103075.88;5007080;28;20193;-74
2024/03/21 05:58:04;;;;;;;19.07;3.43;;;;;;;8.24;100.00;103094.31;5006061;28;20181;-74
2024/03/21 06:00:30;;;;;;;18.80;4.33;;;;;;;8.60;100.00;103143.91;5009062;28;20185;-74
2024/03/21 06:02:55;;;;;;;17.67;3.80;;;;;;;8.44;100.00;103153.34;5001758;28;20756;-73
2024/03/21 06:05:21;;;;;;;14.97;3.50;;;;;;;8.73;100.00;103177.66;5007757;28;20205;-74
2024/03/21 06:07:46;;;;;;;15.30;4.10;;;;;;;8.85;100.00;103183.81;5005138;28;20193;-75
2024/03/21 06:10:12;;;;;;;14.43;3.70;;;;;;;8.41;100.00;103121.53;5007393;28;20197;-75
2024/03/21 06:12:37;;;;;;;14.60;3.60;;;;;;;8.22;100.00;103114.19;5006854;28;20197;-74
2024/03/21 06:15:03;;;;;;;17.60;3.40;;;;;;;8.75;100.00;103211.34;5007538;28;20173;-74
2024/03/21 06:17:28;;;;;;;16.27;4.07;;;;;;;7.69;100.00;103077.50;5006273;28;20185;-74
2024/03/21 06:19:54;;;;;;;17.57;4.23;;;;;;;7.99;100.00;103121.41;5007391;28;20201;-74
2024/03/21 06:22:19;;;;;;;19.20;3.87;;;;;;;8.14;100.00;103168.25;5007721;28;20209;-74
2024/03/21 06:24:44;;;;;;;16.30;3.37;;;;;;;8.38;100.00;103216.19;5006504;28;20216;-75
2024/03/21 06:27:10;;;;;;;12.67;2.60;;;;;;;7.86;100.00;103113.53;4986900;28;20173;-74
2024/03/21 06:29:35;;;;;;;20.87;3.53;;;;;;;8.74;100.00;103233.75;5007879;28;20185;-74
2024/03/21 06:32:01;;;;;;;24.70;5.67;;;;;;;7.86;100.00;103140.25;5005527;28;20580;-74
2024/03/21 06:34:26;;;;;;;21.40;3.70;;;;;;;8.45;100.00;103248.69;5007118;28;20231;-74
2024/03/21 06:36:51;;;;;;;18.37;4.10;;;;;;;8.14;100.00;103243.13;5005731;28;20182;-75
2024/03/21 06:39:19;;;;;;;15.10;3.70;;;;;;;8.11;100.00;103295.00;5007926;28;20189;-74
2024/03/21 06:41:45;;;;;;;14.80;3.90;;;;;;;8.10;100.00;103328.06;5006119;28;20685;-74
2024/03/21 06:44:10;;;;;;;17.77;3.27;;;;;;;8.01;100.00;103290.50;5007652;28;20471;-74
2024/03/21 06:46:38;;;;;;;15.30;3.03;;;;;;;7.86;100.00;103344.19;5006387;28;20189;-75
2024/03/21 06:49:04;;;;;;;11.93;2.60;;;;;;;7.65;100.00;103257.72;5008202;28;20212;-74
2024/03/21 06:51:30;;;;;;;13.73;3.20;;;;;;;8.35;100.00;103396.47;5005434;28;20456;-75
2024/03/21 06:53:55;;;;;;;12.67;2.70;;;;;;;8.34;100.00;103440.25;5007197;28;20423;-74
2024/03/21 06:56:21;;;;;;;13.50;3.07;;;;;;;7.91;100.00;103383.91;4983296;28;20185;-74
2024/03/21 06:58:46;;;;;;;11.40;2.57;;;;;;;7.63;100.00;103420.75;5005868;28;20184;-74
2024/03/21 07:01:12;;;;;;;17.10;3.07;;;;;;;8.20;100.00;103488.59;5003588;28;20202;-75
2024/03/21 07:03:39;;;;;;;13.97;2.97;;;;;;;7.63;100.00;103403.88;5007770;28;20282;-75
2024/03/21 07:06:04;;;;;;;15.80;3.57;;;;;;;8.31;100.00;103469.06;5007678;28;20458;-74
2024/03/21 07:08:30;;;;;;;17.57;3.43;;;;;;;7.87;100.00;103422.56;5005932;28;20825;-74
2024/03/21 07:10:55;;;;;;;13.93;3.20;;;;;;;7.92;100.00;103418.53;5005588;28;20184;-75
2024/03/21 07:13:20;;;;;;;17.80;3.23;;;;;;;7.93;100.00;103432.78;5004893;28;20181;-74
2024/03/21 07:15:46;;;;;;;10.73;2.70;;;;;;;8.02;100.00;103473.97;5005720;28;20187;-75
2024/03/21 07:18:13;;;;;;;10.90;3.43;;;;;;;7.72;100.00;103415.69;5008393;28;20666;-75
2024/03/21 07:20:38;;;;;;;10.20;3.10;;;;;;;7.82;100.00;103484.34;5009755;28;20216;-74
2024/03/21 07:23:06;;;;;;;10.97;3.13;;;;;;;7.86;100.00;103541.94;5015009;28;20455;-74
2024/03/21 07:25:31;;;;;;;14.00;3.30;;;;;;;8.54;100.00;103644.69;5006089;28;20197;-75
2024/03/21 07:27:57;;;;;;;10.00;3.20;;;;;;;8.51;100.00;103697.59;5005734;28;20804;-75
2024/03/21 07:30:22;;;;;;;13.00;3.10;;;;;;;8.38;100.00;103694.91;5007132;28;20195;-75
2024/03/21 07:32:51;;;;;;;11.13;3.13;;;;;;;7.92;100.00;103688.47;5005373;28;20209;-75
2024/03/21 07:35:16;;;;;;;8.60;2.37;;;;;;;8.45;100.00;103748.88;5000435;28;20265;-75
2024/03/21 07:37:42;;;;;;;12.10;2.90;;;;;;;8.50;100.00;103784.13;5004118;28;20812;-75
2024/03/21 07:40:07;;;;;;;11.67;2.50;;;;;;;8.44;100.00;103764.03;5006317;28;20235;-75
2024/03/21 07:42:33;;;;;;;11.60;3.40;;;;;;;8.67;100.00;103829.22;5004312;28;20209;-75
2024/03/21 07:45:01;;;;;;;13.23;3.43;;;;;;;7.83;100.00;103707.84;4985496;28;20211;-76
2024/03/21 07:49:55;;;;;;;11.70;3.20;;;;;;;8.32;100.00;103795.19;5024561;28;20487;-69
2024/03/21 07:52:21;;;;;;;12.20;3.20;;;;;;;8.14;100.00;103761.78;5026025;28;20443;-69
2024/03/21 07:54:46;;;;;;;11.93;2.73;;;;;;;8.40;100.00;103848.16;5025452;28;20180;-69
2024/03/21 07:57:12;;;;;;;18.30;3.00;;;;;;;8.64;100.00;103856.22;5026217;28;20908;-69
2024/03/21 07:59:37;;;;;;;14.60;3.13;;;;;;;8.21;100.00;103755.00;5026690;28;20180;-69
2024/03/21 08:02:04;;;;;;;19.00;3.80;;;;;;;8.85;100.00;103845.75;5024837;28;20196;-67
2024/03/21 08:04:29;;;;;;;7.33;2.10;;;;;;;8.71;100.00;103822.69;5027775;28;20200;-67
2024/03/21 08:06:57;;;;;;;16.00;3.10;;;;;;;8.48;100.00;103791.44;5027110;28;20946;-67
2024/03/21 08:09:23;;;;;;;12.70;3.77;;;;;;;8.91;100.00;103852.47;5028965;28;20188;-67
2024/03/21 08:11:48;;;;;;;12.30;3.40;;;;;;;8.56;100.00;103803.28;5025843;28;20455;-67
2024/03/21 08:14:14;;;;;;;13.60;4.17;;;;;;;8.50;100.00;103768.09;5026383;28;20636;-67
2024/03/21 08:16:39;;;;;;;19.27;3.23;;;;;;;9.17;100.00;103838.00;5027066;28;20188;-67
2024/03/21 08:19:05;;;;;;;11.50;3.13;;;;;;;8.92;100.00;103830.09;5026337;28;20173;-67
2024/03/21 08:21:30;;;;;;;13.13;3.10;;;;;;;8.37;100.00;103757.41;5027114;28;20293;-67
2024/03/21 08:23:56;;;;;;;12.20;2.93;;;;;;;8.46;100.00;103746.06;5025483;28;20204;-67
2024/03/21 08:26:21;;;;;;;11.70;2.53;;;;;;;8.38;100.00;103727.91;5028241;28;20191;-67
2024/03/21 08:28:47;;;;;;;14.10;3.67;;;;;;;8.58;100.00;103803.16;5023800;28;20193;-67
2024/03/21 08:31:12;;;;;;;9.80;2.67;;;;;;;8.72;100.00;103773.56;5024928;28;20196;-67
2024/03/21 08:33:37;;;;;;;10.80;2.77;;;;;;;9.32;100.00;103811.00;5028268;28;20764;-67
2024/03/21 08:36:04;;;;;;;13.37;3.20;;;;;;;9.07;100.00;103763.81;5031633;28;20184;-68
2024/03/21 08:38:31;;;;;;;13.50;3.47;;;;;;;9.04;100.00;103767.59;5030002;28;22251;-67
2024/03/21 08:40:57;;;;;;;10.50;2.60;;;;;;;9.03;100.00;103760.53;5041862;28;20435;-67
2024/03/21 08:43:22;;;;;;;14.40;3.20;;;;;;;8.75;100.00;103719.78;5030015;28;20522;-67
2024/03/21 08:45:48;;;;;;;13.00;3.40;;;;;;;9.03;100.00;103718.53;5032138;28;20172;-67
2024/03/21 08:48:15;;;;;;;11.10;2.67;;;;;;;9.12;100.00;103711.63;5029243;28;20273;-67
2024/03/21 08:50:44;;;;;;;14.90;2.90;;;;;;;9.33;100.00;103690.34;5030948;28;20488;-67
2024/03/21 08:53:09;;;;;;;12.33;2.80;;;;;;;8.60;100.00;103577.34;5028719;28;20626;-67
2024/03/21 08:55:35;;;;;;;9.63;2.87;;;;;;;9.05;100.00;103641.66;5030296;28;20426;-67
2024/03/21 08:58:02;;;;;;;10.30;2.83;;;;;;;9.42;100.00;103688.75;5030246;28;20176;-67
2024/03/21 09:00:28;;;;;;;16.33;4.57;;;;;;;9.42;100.00;103651.25;5029190;28;20426;-67
2024/03/21 09:02:53;;;;;;;15.13;2.90;;;;;;;9.21;100.00;103648.47;5028986;28;20439;-67
2024/03/21 09:05:19;;;;;;;12.43;2.10;;;;;;;9.27;100.00;103658.69;5028627;28;20208;-67
2024/03/21 09:07:44;;;;;;;10.60;2.50;;;;;;;9.35;100.00;103647.38;5029296;28;20172;-67
2024/03/21 09:10:10;;;;;;;14.07;2.80;;;;;;;9.47;100.00;103641.03;5026924;28;20226;-67
2024/03/21 09:12:36;;;;;;;11.87;3.33;;;;;;;8.49;100.00;103269.69;5029656;28;20239;-67
2024/03/21 09:15:02;;;;;;;10.13;2.57;;;;;;;8.52;100.00;103298.00;5026417;28;20173;-68
2024/03/21 09:17:28;;;;;;;11.63;2.80;;;;;;;8.93;100.00;103366.03;5027954;28;20426;-67
2024/03/21 09:19:53;;;;;;;9.90;2.80;;;;;;;8.39;100.00;103234.00;5031902;28;20180;-67
2024/03/21 09:22:18;;;;;;;12.77;2.73;;;;;;;8.60;100.00;103264.31;5028389;28;20208;-67
2024/03/21 09:24:46;;;;;;;10.60;3.00;;;;;;;8.48;100.00;103248.44;5029406;28;20266;-67
2024/03/21 09:27:12;;;;;;;10.27;2.60;;;;;;;9.12;100.00;103331.41;5029362;28;20673;-67
2024/03/21 09:29:37;;;;;;;10.77;2.80;;;;;;;9.42;100.00;103378.00;5029230;28;20419;-67
2024/03/21 09:32:03;;;;;;;13.97;3.03;;;;;;;9.14;100.00;103316.06;5028209;28;20786;-67
2024/03/21 09:34:28;;;;;;;12.17;2.87;;;;;;;9.61;100.00;103402.28;5032733;28;20179;-67
2024/03/21 09:36:54;;;;;;;12.87;3.50;;;;;;;9.39;100.00;103379.09;5030502;28;20192;-67
2024/03/21 09:39:19;;;;;;;11.53;2.70;;;;;;;9.21;100.00;103354.72;5027497;28;20188;-67
2024/03/21 09:41:45;;;;;;;11.20;2.53;;;;;;;9.49;100.00;103412.19;5029289;28;21012;-67
2024/03/21 09:44:13;;;;;;;11.10;2.47;;;;;;;9.26;100.00;103365.91;5029824;28;20653;-67
2024/03/21 09:46:39;;;;;;;12.60;2.70;;;;;;;8.99;100.00;103264.63;5026487;28;20176;-67
2024/03/21 09:49:07;;;;;;;16.03;3.50;;;;;;;9.67;100.00;103401.75;5027815;28;20446;-68
2024/03/21 09:51:33;;;;;;;13.40;3.07;;;;;;;9.37;100.00;103394.44;5027482;28;20712;-67
2024/03/21 09:53:59;;;;;;;16.20;3.27;;;;;;;9.29;100.00;103378.19;5026846;28;20415;-67
2024/03/21 09:56:24;;;;;;;17.90;2.90;;;;;;;9.10;100.00;103354.75;5027087;28;20447;-67
2024/03/21 09:58:50;;;;;;;14.93;3.33;;;;;;;9.34;100.00;103394.72;5029269;28;20691;-67
2024/03/21 10:01:20;;;;;;;13.17;2.87;;;;;;;9.31;100.00;103378.91;5028234;28;20666;-67
2024/03/21 10:03:48;;;;;;;15.07;3.07;;;;;;;8.70;100.00;103234.94;5029372;28;21362;-67
2024/03/21 10:06:14;;;;;;;13.43;2.80;;;;;;;9.00;100.00;103302.97;5028071;28;20485;-66
2024/03/21 10:08:39;;;;;;;13.33;3.20;;;;;;;9.52;100.00;103378.94;5022488;28;20435;-67
2024/03/21 10:11:05;;;;;;;16.37;3.17;;;;;;;8.66;100.00;103236.19;5024808;28;20193;-66
2024/03/21 10:13:30;;;;;;;18.23;3.23;;;;;;;9.22;100.00;103391.22;5028738;28;20259;-66
2024/03/21 10:15:56;;;;;;;14.00;3.30;;;;;;;9.38;100.00;103352.47;5028368;28;20253;-66
2024/03/21 10:18:21;;;;;;;11.83;2.50;;;;;;;9.59;100.00;103396.19;5027214;28;20234;-66
2024/03/21 10:20:48;;;;;;;18.13;2.80;;;;;;;9.76;100.00;103405.47;5027989;28;20193;-66
2024/03/21 10:23:16;;;;;;;17.60;3.30;;;;;;;8.78;100.00;103232.50;5030323;28;20179;-66
2024/03/21 10:25:42;;;;;;;13.50;3.17;;;;;;;9.24;100.00;103377.72;5028545;28;20427;-66
2024/03/21 10:28:17;;;;;;;17.03;3.00;;;;;;;9.33;100.00;103398.38;5024911;28;20923;-66
2024/03/21 10:30:43;;;;;;;19.27;3.77;;;;;;;8.67;100.00;103317.31;5029146;28;20429;-66
2024/03/21 10:33:17;;;;;;;10.30;2.20;;;;;;;9.10;100.00;103353.91;5028873;28;20439;-66
2024/03/21 10:35:44;;;;;;;17.73;3.47;;;;;;;9.39;100.00;103437.19;5029349;28;20427;-66
2024/03/21 10:38:13;;;;;;;12.70;2.90;;;;;;;8.91;100.00;103382.22;5029004;28;20423;-66
2024/03/21 10:40:46;;;;;;;19.40;3.30;;;;;;;8.77;100.00;103385.16;5028559;28;20474;-66
2024/03/21 10:43:15;;;;;;;21.37;3.20;;;;;;;9.23;100.00;103438.47;5039880;28;20458;-66
2024/03/21 10:45:42;;;;;;;15.63;2.70;;;;;;;9.08;100.00;103420.13;5027917;28;20430;-66
2024/03/21 10:48:25;;;;;;;19.13;3.33;;;;;;;9.56;100.00;103442.00;5027248;28;20431;-67
2024/03/21 10:50:52;;;;;;;13.37;2.40;;;;;;;9.22;100.00;103401.94;5029149;28;21012;-67
2024/03/21 10:53:21;;;;;;;16.50;3.17;;;;;;;8.96;100.00;103411.28;5027213;28;20427;-67
2024/03/21 10:55:52;;;;;;;13.10;2.70;;;;;;;9.00;100.00;103405.56;5021627;28;20438;-67
2024/03/21 10:58:19;;;;;;;14.47;2.50;;;;;;;9.14;100.00;103444.59;5046096;28;20431;-67
2024/03/21 11:00:54;;;;;;;14.87;3.23;;;;;;;9.09;100.00;103395.91;5041520;28;20464;-67
2024/03/21 11:03:20;;;;;;;13.73;2.70;;;;;;;9.44;100.00;103443.88;5027702;28;20500;-67
2024/03/21 11:05:58;;;;;;;13.03;2.40;;;;;;;9.50;100.00;103426.44;5028610;28;20428;-67
2024/03/21 11:08:28;;;;;;;21.47;4.10;;;;;;;9.40;100.00;103429.03;5027829;28;20430;-66
2024/03/21 11:10:55;;;;;;;14.30;2.93;;;;;;;9.45;100.00;103417.94;5024926;28;20846;-67
2024/03/21 11:13:25;;;;;;;11.13;2.50;;;;;;;8.69;100.00;103292.13;5027325;28;20470;-67
2024/03/21 11:15:55;;;;;;;13.47;2.90;;;;;;;9.41;100.00;103384.34;5026444;28;20431;-67
2024/03/21 11:18:21;;;;;;;12.90;2.57;;;;;;;9.42;100.00;103407.47;5026103;28;20420;-67